createdAt,value
2023-03-08T00:03:45.922Z,56
2023-03-08T00:08:45.218Z,57
2023-03-08T00:13:44.775Z,58
2023-03-08T00:18:44.934Z,59
2023-03-08T00:23:44.479Z,59
2023-03-08T00:28:45.605Z,59
2023-03-08T00:33:52.309Z,59
2023-03-08T00:38:52.084Z,59
2023-03-08T00:43:52.197Z,58
2023-03-08T00:48:49.948Z,59
2023-03-08T00:53:49.652Z,59
2023-03-08T00:58:49.599Z,59
2023-03-08T01:03:48.743Z,59
2023-03-08T01:08:48.671Z,59
2023-03-08T01:13:49.433Z,59
2023-03-08T01:18:47.236Z,59
2023-03-08T01:23:46.868Z,59
2023-03-08T01:28:46.890Z,59
2023-03-08T01:33:35.491Z,59
2023-03-08T01:38:35.301Z,59
2023-03-08T01:43:35.068Z,60
2023-03-08T01:48:34.956Z,60
2023-03-08T01:53:35.774Z,60
2023-03-08T01:58:32.122Z,60
2023-03-08T01:59:53.549Z,60
2023-03-08T02:04:53.066Z,60
2023-03-08T02:09:53.756Z,61
2023-03-08T02:14:50.568Z,61
2023-03-08T02:19:50.083Z,61
2023-03-08T02:24:49.552Z,61
2023-03-08T02:29:49.181Z,61
2023-03-08T02:34:48.541Z,60
2023-03-08T02:39:48.655Z,60
2023-03-08T02:44:48.635Z,60
2023-03-08T02:49:48.874Z,60
2023-03-08T02:54:46.632Z,59
2023-03-08T02:59:13.679Z,59
2023-03-08T03:04:12.736Z,58
2023-03-08T03:09:12.660Z,58
2023-03-08T03:14:11.987Z,59
2023-03-08T03:19:11.376Z,59
2023-03-08T03:24:12.172Z,59
2023-03-08T03:29:11.346Z,60
2023-03-08T03:34:12.200Z,60
2023-03-08T03:39:08.939Z,60
2023-03-08T03:44:08.475Z,60
2023-03-08T03:49:08.154Z,60
2023-03-08T03:54:08.080Z,60
2023-03-08T03:58:52.294Z,61
2023-03-08T04:03:52.814Z,61
2023-03-08T04:08:52.468Z,62
2023-03-08T04:13:53.785Z,62
2023-03-08T04:18:49.514Z,62
2023-03-08T04:23:49.634Z,61
2023-03-08T04:28:48.937Z,61
2023-03-08T04:33:48.192Z,61
2023-03-08T04:38:48.000Z,61
2023-03-08T04:43:48.140Z,61
2023-03-08T04:48:47.509Z,61
2023-03-08T04:53:48.794Z,62
2023-03-08T04:58:45.043Z,62
2023-03-08T05:03:45.116Z,62
2023-03-08T05:08:44.587Z,62
2023-03-08T05:13:44.697Z,61
2023-03-08T05:18:53.027Z,61
2023-03-08T05:23:52.259Z,62
2023-03-08T05:28:52.398Z,62
2023-03-08T05:33:51.085Z,63
2023-03-08T05:38:51.495Z,63
2023-03-08T05:43:51.113Z,63
2023-03-08T05:48:52.002Z,64
2023-03-08T05:53:48.787Z,64
2023-03-08T05:58:49.085Z,64
2023-03-08T06:00:09.823Z,64
2023-03-08T06:05:09.317Z,64
2023-03-08T06:10:09.353Z,64
2023-03-08T06:15:09.243Z,64
2023-03-08T06:20:10.118Z,64
2023-03-08T06:25:06.601Z,64
2023-03-08T06:30:06.569Z,64
2023-03-08T06:35:06.156Z,64
2023-03-08T06:40:06.205Z,64
2023-03-08T06:45:04.181Z,67
2023-03-08T06:50:03.674Z,70
2023-03-08T06:55:02.892Z,73
2023-03-08T06:59:23.774Z,76
2023-03-08T07:04:23.523Z,78
2023-03-08T07:09:23.175Z,80
2023-03-08T07:14:23.248Z,81
2023-03-08T07:19:22.771Z,82
2023-03-08T07:24:23.926Z,83
2023-03-08T07:29:20.133Z,84
2023-03-08T07:34:20.039Z,85
2023-03-08T07:39:20.272Z,86
2023-03-08T07:44:19.713Z,87
2023-03-08T07:49:19.295Z,87
2023-03-08T07:54:22.702Z,87
2023-03-08T07:59:10.040Z,88
2023-03-08T08:04:11.739Z,88
2023-03-08T08:09:07.884Z,89
2023-03-08T08:14:08.181Z,90
2023-03-08T08:19:07.659Z,90
2023-03-08T08:24:07.778Z,91
2023-03-08T08:29:05.192Z,91
2023-03-08T08:34:05.146Z,92
2023-03-08T08:39:04.766Z,92
2023-03-08T08:44:05.035Z,93
2023-03-08T08:49:03.003Z,93
2023-03-08T08:54:03.217Z,94
2023-03-08T08:58:49.677Z,94
2023-03-08T09:03:49.506Z,95
2023-03-08T09:08:50.841Z,94
2023-03-08T09:13:47.121Z,95
2023-03-08T09:18:46.852Z,95
2023-03-08T09:23:46.786Z,96
2023-03-08T09:28:46.471Z,96
2023-03-08T09:33:45.906Z,95
2023-03-08T09:38:46.034Z,96
2023-03-08T09:43:45.557Z,96
2023-03-08T09:48:46.859Z,97
2023-03-08T09:53:43.331Z,97
2023-03-08T09:58:43.549Z,96
2023-03-08T10:03:53.463Z,97
2023-03-08T10:08:53.903Z,97
2023-03-08T10:13:51.384Z,97
2023-03-08T10:18:51.216Z,97
2023-03-08T10:23:51.771Z,97
2023-03-08T10:28:48.695Z,97
2023-03-08T10:33:48.281Z,98
2023-03-08T10:38:48.757Z,98
2023-03-08T10:43:36.301Z,98
2023-03-08T10:48:36.305Z,98
2023-03-08T10:53:35.600Z,98
2023-03-08T10:58:36.242Z,98
2023-03-08T10:59:57.146Z,98
2023-03-08T11:04:57.292Z,98
2023-03-08T11:09:56.641Z,98
2023-03-08T11:14:56.774Z,98
2023-03-08T11:19:54.184Z,98
2023-03-08T11:24:54.246Z,98
2023-03-08T11:29:53.606Z,98
2023-03-08T11:34:53.655Z,98
2023-03-08T11:39:52.940Z,99
2023-03-08T11:44:53.259Z,99
2023-03-08T11:49:52.193Z,98
2023-03-08T11:54:52.078Z,97
2023-03-08T11:58:58.097Z,95
2023-03-08T12:03:55.218Z,91
2023-03-08T12:08:55.149Z,87
2023-03-08T12:13:54.515Z,85
2023-03-08T12:18:54.543Z,83
2023-03-08T12:23:52.293Z,82
2023-03-08T12:28:51.985Z,81
2023-03-08T12:33:52.428Z,82
2023-03-08T12:38:53.351Z,81
2023-03-08T12:43:49.899Z,80
2023-03-08T12:53:49.709Z,79
2023-03-08T12:58:49.477Z,78
2023-03-08T13:03:47.348Z,78
2023-03-08T13:08:47.181Z,77
2023-03-08T13:13:46.888Z,77
2023-03-08T13:18:46.760Z,77
2023-03-08T13:23:46.501Z,76
2023-03-08T13:28:48.971Z,77
2023-03-08T13:33:45.894Z,77
2023-03-08T13:38:45.306Z,78
2023-03-08T13:43:46.388Z,82
2023-03-08T13:48:53.074Z,84
2023-03-08T13:53:52.596Z,87
2023-03-08T13:58:52.651Z,89
2023-03-08T14:03:50.268Z,90
2023-03-08T14:08:50.111Z,90
2023-03-08T14:13:51.186Z,90
2023-03-08T14:18:48.118Z,90
2023-03-08T14:23:47.898Z,90
2023-03-08T14:28:48.155Z,89
2023-03-08T14:33:43.130Z,88
2023-03-08T14:38:35.866Z,87
2023-03-08T14:43:35.364Z,86
2023-03-08T14:48:35.038Z,85
2023-03-08T14:53:34.570Z,84
2023-03-08T14:58:34.158Z,84
2023-03-08T14:59:55.498Z,83
2023-03-08T15:04:55.336Z,82
2023-03-08T15:09:56.920Z,81
2023-03-08T15:14:53.080Z,81
2023-03-08T15:19:53.517Z,81
2023-03-08T15:24:53.044Z,81
2023-03-08T15:29:53.103Z,81
2023-03-08T15:34:50.461Z,81
2023-03-08T15:40:44.313Z,81
2023-03-08T15:44:49.632Z,79
2023-03-08T15:49:49.089Z,77
2023-03-08T15:54:48.258Z,76
2023-03-08T15:59:13.253Z,76
2023-03-08T16:04:11.756Z,76
2023-03-08T16:09:11.379Z,76
2023-03-08T16:14:10.696Z,76
2023-03-08T16:19:10.310Z,76
2023-03-08T16:24:09.936Z,75
2023-03-08T16:29:09.502Z,75
2023-03-08T16:34:09.843Z,74
2023-03-08T16:44:10.649Z,74
2023-03-08T16:49:07.099Z,75
2023-03-08T16:54:06.913Z,76
2023-03-08T16:58:52.595Z,77
2023-03-08T17:03:52.902Z,76
2023-03-08T17:08:50.199Z,75
2023-03-08T17:13:50.207Z,75
2023-03-08T17:18:49.344Z,74
2023-03-08T17:23:49.208Z,73
2023-03-08T17:28:46.989Z,73
2023-03-08T17:33:47.050Z,73
2023-03-08T17:38:46.135Z,74
2023-03-08T17:43:46.455Z,74
2023-03-08T17:48:43.958Z,74
2023-03-08T17:53:43.672Z,74
2023-03-08T17:58:53.372Z,76
2023-03-08T18:03:54.850Z,77
2023-03-08T18:08:51.908Z,79
2023-03-08T18:13:51.480Z,83
2023-03-08T18:18:51.641Z,87
2023-03-08T18:23:49.678Z,88
2023-03-08T18:28:49.268Z,87
2023-03-08T18:33:49.529Z,87
2023-03-08T18:38:48.312Z,86
2023-03-08T18:43:48.780Z,86
2023-03-08T18:48:48.353Z,87
2023-03-08T18:53:49.330Z,87
2023-03-08T18:58:35.932Z,88
2023-03-08T19:03:36.127Z,87
2023-03-08T19:08:44.548Z,87
2023-03-08T19:13:33.967Z,87
2023-03-08T19:18:33.714Z,87
2023-03-08T19:23:32.881Z,88
2023-03-08T19:28:32.679Z,89
2023-03-08T19:33:32.705Z,90
2023-03-08T19:38:31.952Z,91
2023-03-08T19:43:32.040Z,92
2023-03-08T19:48:31.543Z,94
2023-03-08T19:53:32.926Z,94
2023-03-08T19:58:29.165Z,95
2023-03-08T20:03:29.602Z,96
2023-03-08T20:08:29.246Z,96
2023-03-08T20:13:27.949Z,96
2023-03-08T20:18:27.640Z,97
2023-03-08T20:23:27.525Z,97
2023-03-08T20:28:26.935Z,97
2023-03-08T20:33:28.234Z,97
2023-03-08T20:38:24.683Z,97
2023-03-08T20:43:24.413Z,98
2023-03-08T20:48:24.257Z,98
2023-03-08T20:53:23.594Z,98
2023-03-08T20:58:23.259Z,98
2023-03-08T20:59:44.771Z,98
2023-03-08T21:04:44.533Z,98
2023-03-08T21:09:45.429Z,98
2023-03-08T21:14:52.482Z,98
2023-03-08T21:19:52.312Z,98
2023-03-08T21:24:52.700Z,98
2023-03-08T21:29:50.383Z,98
2023-03-08T21:34:50.254Z,98
2023-03-08T21:39:50.145Z,98
2023-03-08T21:44:49.179Z,98
2023-03-08T21:49:49.166Z,98
2023-03-08T21:54:49.100Z,98
2023-03-08T21:58:52.726Z,98
2023-03-08T22:03:49.054Z,98
2023-03-08T22:08:48.705Z,98
2023-03-08T22:13:48.262Z,99
2023-03-08T22:18:47.052Z,99
2023-03-08T22:23:46.903Z,99
2023-03-08T22:28:46.724Z,99
2023-03-08T22:33:46.483Z,99
2023-03-08T22:38:47.841Z,99
2023-03-08T22:43:44.273Z,99
2023-03-08T22:48:44.306Z,99
2023-03-08T22:53:43.827Z,99
2023-03-08T22:58:43.801Z,99
2023-03-08T23:03:52.255Z,99
2023-03-08T23:08:51.662Z,99
2023-03-08T23:13:51.941Z,99
2023-03-08T23:18:50.330Z,99
2023-03-08T23:23:50.941Z,98
2023-03-08T23:28:50.661Z,98
2023-03-08T23:33:51.406Z,98
2023-03-08T23:38:48.376Z,98
2023-03-08T23:43:48.367Z,98
2023-03-08T23:48:49.872Z,98
2023-03-08T23:53:36.479Z,98
2023-03-08T23:58:36.430Z,98
2023-03-08T23:59:58.219Z,98
